sensor_id;sensor_type;location;lat;lon;timestamp;temperature;humidity
29007;DHT22;16104;48.642;9.008;2023-03-14T00:02:01;12.70;65.90
29007;DHT22;16104;48.642;9.008;2023-03-14T00:06:56;12.70;66.00
29007;DHT22;16104;48.642;9.008;2023-03-14T00:11:55;12.70;66.20
29007;DHT22;16104;48.642;9.008;2023-03-14T00:16:51;12.60;66.40
29007;DHT22;16104;48.642;9.008;2023-03-14T00:21:47;12.60;66.20
29007;DHT22;16104;48.642;9.008;2023-03-14T00:26:42;12.60;66.10
29007;DHT22;16104;48.642;9.008;2023-03-14T00:31:38;12.60;66.30
29007;DHT22;16104;48.642;9.008;2023-03-14T00:36:34;12.60;66.10
29007;DHT22;16104;48.642;9.008;2023-03-14T00:41:30;12.70;66.10
29007;DHT22;16104;48.642;9.008;2023-03-14T00:46:25;12.60;66.00
29007;DHT22;16104;48.642;9.008;2023-03-14T00:51:21;12.70;66.20
29007;DHT22;16104;48.642;9.008;2023-03-14T00:56:16;12.60;66.00
29007;DHT22;16104;48.642;9.008;2023-03-14T02:02:16;12.50;67.40
29007;DHT22;16104;48.642;9.008;2023-03-14T02:07:17;12.40;67.30
29007;DHT22;16104;48.642;9.008;2023-03-14T02:12:16;12.40;67.60
29007;DHT22;16104;48.642;9.008;2023-03-14T03:08:00;12.20;67.60
29007;DHT22;16104;48.642;9.008;2023-03-14T03:12:56;12.20;66.70
29007;DHT22;16104;48.642;9.008;2023-03-14T04:03:39;11.80;64.10
29007;DHT22;16104;48.642;9.008;2023-03-14T04:08:35;11.80;63.90
29007;DHT22;16104;48.642;9.008;2023-03-14T04:13:31;11.70;63.70
29007;DHT22;16104;48.642;9.008;2023-03-14T04:18:27;11.70;63.70
29007;DHT22;16104;48.642;9.008;2023-03-14T04:23:23;11.70;63.70
29007;DHT22;16104;48.642;9.008;2023-03-14T04:28:19;11.70;63.60
29007;DHT22;16104;48.642;9.008;2023-03-14T04:33:15;11.60;63.50
29007;DHT22;16104;48.642;9.008;2023-03-14T04:38:13;11.60;63.40
29007;DHT22;16104;48.642;9.008;2023-03-14T04:43:10;11.60;64.30
29007;DHT22;16104;48.642;9.008;2023-03-14T04:48:06;11.60;63.60
29007;DHT22;16104;48.642;9.008;2023-03-14T04:53:02;11.60;63.60
29007;DHT22;16104;48.642;9.008;2023-03-14T04:57:57;11.50;63.50
29007;DHT22;16104;48.642;9.008;2023-03-14T05:02:53;11.50;63.50
29007;DHT22;16104;48.642;9.008;2023-03-14T05:07:48;11.50;63.20
29007;DHT22;16104;48.642;9.008;2023-03-14T05:12:44;11.50;63.20
29007;DHT22;16104;48.642;9.008;2023-03-14T05:17:39;11.50;63.20
29007;DHT22;16104;48.642;9.008;2023-03-14T05:22:35;11.50;63.20
29007;DHT22;16104;48.642;9.008;2023-03-14T05:27:30;11.30;63.20
29007;DHT22;16104;48.642;9.008;2023-03-14T05:32:26;11.40;63.20
29007;DHT22;16104;48.642;9.008;2023-03-14T05:37:21;11.40;63.20
29007;DHT22;16104;48.642;9.008;2023-03-14T05:42:17;11.40;63.30
29007;DHT22;16104;48.642;9.008;2023-03-14T05:47:13;11.40;63.20
29007;DHT22;16104;48.642;9.008;2023-03-14T05:52:08;11.40;63.20
29007;DHT22;16104;48.642;9.008;2023-03-14T05:57:04;11.40;63.10
29007;DHT22;16104;48.642;9.008;2023-03-14T06:01:59;11.40;63.00
29007;DHT22;16104;48.642;9.008;2023-03-14T06:06:56;11.40;62.90
29007;DHT22;16104;48.642;9.008;2023-03-14T06:11:52;11.40;62.90
29007;DHT22;16104;48.642;9.008;2023-03-14T06:16:47;11.40;62.70
29007;DHT22;16104;48.642;9.008;2023-03-14T06:21:44;11.40;62.50
29007;DHT22;16104;48.642;9.008;2023-03-14T06:26:39;11.40;62.50
29007;DHT22;16104;48.642;9.008;2023-03-14T06:31:35;11.40;62.40
29007;DHT22;16104;48.642;9.008;2023-03-14T06:36:30;11.40;62.30
29007;DHT22;16104;48.642;9.008;2023-03-14T06:41:26;11.50;62.30
29007;DHT22;16104;48.642;9.008;2023-03-14T06:46:22;11.50;62.30
29007;DHT22;16104;48.642;9.008;2023-03-14T06:51:17;11.60;62.00
29007;DHT22;16104;48.642;9.008;2023-03-14T06:56:13;11.60;61.90
29007;DHT22;16104;48.642;9.008;2023-03-14T07:01:23;11.60;61.70
29007;DHT22;16104;48.642;9.008;2023-03-14T07:06:19;11.60;61.80
29007;DHT22;16104;48.642;9.008;2023-03-14T07:11:15;11.80;61.90
29007;DHT22;16104;48.642;9.008;2023-03-14T07:16:10;11.80;62.60
29007;DHT22;16104;48.642;9.008;2023-03-14T07:21:07;11.90;61.70
29007;DHT22;16104;48.642;9.008;2023-03-14T07:26:02;12.00;61.40
29007;DHT22;16104;48.642;9.008;2023-03-14T07:30:58;12.10;61.50
29007;DHT22;16104;48.642;9.008;2023-03-14T07:35:54;12.20;60.90
29007;DHT22;16104;48.642;9.008;2023-03-14T07:40:50;12.30;60.80
29007;DHT22;16104;48.642;9.008;2023-03-14T07:45:52;12.30;61.30
29007;DHT22;16104;48.642;9.008;2023-03-14T07:50:49;12.40;60.60
29007;DHT22;16104;48.642;9.008;2023-03-14T07:55:45;12.50;60.10
29007;DHT22;16104;48.642;9.008;2023-03-14T08:00:41;12.60;59.80
29007;DHT22;16104;48.642;9.008;2023-03-14T08:05:37;12.70;60.00
29007;DHT22;16104;48.642;9.008;2023-03-14T08:10:33;12.80;59.70
29007;DHT22;16104;48.642;9.008;2023-03-14T08:15:30;12.90;59.10
29007;DHT22;16104;48.642;9.008;2023-03-14T08:20:28;13.00;59.10
29007;DHT22;16104;48.642;9.008;2023-03-14T08:25:25;13.10;59.40
29007;DHT22;16104;48.642;9.008;2023-03-14T08:30:21;13.30;59.00
29007;DHT22;16104;48.642;9.008;2023-03-14T08:35:17;13.50;58.20
29007;DHT22;16104;48.642;9.008;2023-03-14T08:40:13;13.60;57.90
29007;DHT22;16104;48.642;9.008;2023-03-14T08:45:11;13.70;57.40
29007;DHT22;16104;48.642;9.008;2023-03-14T08:50:09;13.80;57.10
29007;DHT22;16104;48.642;9.008;2023-03-14T08:55:06;13.80;57.50
29007;DHT22;16104;48.642;9.008;2023-03-14T09:00:03;13.80;58.00
29007;DHT22;16104;48.642;9.008;2023-03-14T09:05:01;13.80;58.20
29007;DHT22;16104;48.642;9.008;2023-03-14T09:09:56;13.80;58.90
29007;DHT22;16104;48.642;9.008;2023-03-14T09:14:52;13.70;58.00
29007;DHT22;16104;48.642;9.008;2023-03-14T09:19:47;13.60;57.70
29007;DHT22;16104;48.642;9.008;2023-03-14T09:24:43;13.50;57.90
29007;DHT22;16104;48.642;9.008;2023-03-14T09:29:38;13.50;58.00
29007;DHT22;16104;48.642;9.008;2023-03-14T09:34:34;13.50;58.20
29007;DHT22;16104;48.642;9.008;2023-03-14T09:39:29;13.50;58.30
29007;DHT22;16104;48.642;9.008;2023-03-14T09:44:33;13.60;58.50
29007;DHT22;16104;48.642;9.008;2023-03-14T09:49:39;13.50;58.20
29007;DHT22;16104;48.642;9.008;2023-03-14T09:54:37;13.60;58.10
29007;DHT22;16104;48.642;9.008;2023-03-14T09:59:35;13.50;58.30
29007;DHT22;16104;48.642;9.008;2023-03-14T10:04:31;13.60;58.30
29007;DHT22;16104;48.642;9.008;2023-03-14T10:09:28;13.70;58.50
29007;DHT22;16104;48.642;9.008;2023-03-14T10:14:36;13.80;58.70
29007;DHT22;16104;48.642;9.008;2023-03-14T10:19:32;14.00;57.90
29007;DHT22;16104;48.642;9.008;2023-03-14T10:24:35;14.30;57.70
29007;DHT22;16104;48.642;9.008;2023-03-14T10:29:32;14.30;56.90
29007;DHT22;16104;48.642;9.008;2023-03-14T10:46:30;14.40;56.00
29007;DHT22;16104;48.642;9.008;2023-03-14T16:35:59;11.40;48.70
29007;DHT22;16104;48.642;9.008;2023-03-14T16:41:20;11.30;48.90
29007;DHT22;16104;48.642;9.008;2023-03-14T16:46:17;11.30;48.90
29007;DHT22;16104;48.642;9.008;2023-03-14T16:51:13;11.20;49.10
29007;DHT22;16104;48.642;9.008;2023-03-14T16:56:11;11.10;49.30
29007;DHT22;16104;48.642;9.008;2023-03-14T17:01:08;11.00;49.80
29007;DHT22;16104;48.642;9.008;2023-03-14T17:06:04;10.90;50.60
29007;DHT22;16104;48.642;9.008;2023-03-14T17:11:00;10.80;51.20
29007;DHT22;16104;48.642;9.008;2023-03-14T17:15:57;10.70;51.60
29007;DHT22;16104;48.642;9.008;2023-03-14T17:20:53;10.50;52.00
29007;DHT22;16104;48.642;9.008;2023-03-14T17:25:50;10.40;52.40
29007;DHT22;16104;48.642;9.008;2023-03-14T17:30:45;10.20;52.80
29007;DHT22;16104;48.642;9.008;2023-03-14T17:35:44;10.10;53.20
29007;DHT22;16104;48.642;9.008;2023-03-14T17:40:39;10.00;53.70
29007;DHT22;16104;48.642;9.008;2023-03-14T17:45:35;9.90;54.20
29007;DHT22;16104;48.642;9.008;2023-03-14T17:50:30;9.70;54.40
29007;DHT22;16104;48.642;9.008;2023-03-14T17:55:26;9.60;55.40
29007;DHT22;16104;48.642;9.008;2023-03-14T18:00:22;9.50;55.00
29007;DHT22;16104;48.642;9.008;2023-03-14T18:05:18;9.40;55.20
29007;DHT22;16104;48.642;9.008;2023-03-14T18:10:13;9.30;55.40
29007;DHT22;16104;48.642;9.008;2023-03-14T18:15:11;9.20;56.00
29007;DHT22;16104;48.642;9.008;2023-03-14T18:20:08;9.10;56.60
29007;DHT22;16104;48.642;9.008;2023-03-14T18:25:09;9.00;56.80
29007;DHT22;16104;48.642;9.008;2023-03-14T18:30:05;8.80;57.10
29007;DHT22;16104;48.642;9.008;2023-03-14T18:35:01;8.70;57.40
29007;DHT22;16104;48.642;9.008;2023-03-14T18:39:57;8.60;57.50
29007;DHT22;16104;48.642;9.008;2023-03-14T18:44:52;8.50;57.80
29007;DHT22;16104;48.642;9.008;2023-03-14T18:49:48;8.40;57.80
29007;DHT22;16104;48.642;9.008;2023-03-14T18:54:43;8.30;57.90
29007;DHT22;16104;48.642;9.008;2023-03-14T18:59:39;8.20;58.00
29007;DHT22;16104;48.642;9.008;2023-03-14T19:04:34;8.20;58.10
29007;DHT22;16104;48.642;9.008;2023-03-14T19:09:30;8.10;58.10
29007;DHT22;16104;48.642;9.008;2023-03-14T19:14:25;8.10;58.30
29007;DHT22;16104;48.642;9.008;2023-03-14T19:19:21;8.00;58.30
29007;DHT22;16104;48.642;9.008;2023-03-14T19:24:17;8.00;58.50
29007;DHT22;16104;48.642;9.008;2023-03-14T19:29:14;8.00;58.70
29007;DHT22;16104;48.642;9.008;2023-03-14T19:34:10;8.00;58.80
29007;DHT22;16104;48.642;9.008;2023-03-14T19:39:06;8.00;59.00
29007;DHT22;16104;48.642;9.008;2023-03-14T19:44:01;8.00;59.40
29007;DHT22;16104;48.642;9.008;2023-03-14T19:48:57;8.00;59.60
29007;DHT22;16104;48.642;9.008;2023-03-14T19:53:53;8.10;59.80
29007;DHT22;16104;48.642;9.008;2023-03-14T19:58:48;8.00;59.80
29007;DHT22;16104;48.642;9.008;2023-03-14T20:03:44;8.10;59.80
29007;DHT22;16104;48.642;9.008;2023-03-14T20:08:40;8.10;59.60
29007;DHT22;16104;48.642;9.008;2023-03-14T20:13:37;8.10;59.60
29007;DHT22;16104;48.642;9.008;2023-03-14T20:18:33;8.10;59.60
29007;DHT22;16104;48.642;9.008;2023-03-14T20:23:28;8.00;59.60
29007;DHT22;16104;48.642;9.008;2023-03-14T20:28:25;8.00;59.70
29007;DHT22;16104;48.642;9.008;2023-03-14T20:33:21;8.00;59.80
29007;DHT22;16104;48.642;9.008;2023-03-14T20:38:16;8.00;59.80
29007;DHT22;16104;48.642;9.008;2023-03-14T20:43:12;8.00;59.90
29007;DHT22;16104;48.642;9.008;2023-03-14T20:48:08;8.00;59.90
29007;DHT22;16104;48.642;9.008;2023-03-14T20:53:03;8.00;59.80
29007;DHT22;16104;48.642;9.008;2023-03-14T20:57:59;8.00;59.70
29007;DHT22;16104;48.642;9.008;2023-03-14T21:02:55;8.00;59.80
29007;DHT22;16104;48.642;9.008;2023-03-14T21:07:51;8.00;59.80
29007;DHT22;16104;48.642;9.008;2023-03-14T21:12:47;8.10;59.90
29007;DHT22;16104;48.642;9.008;2023-03-14T21:17:43;8.00;59.80
29007;DHT22;16104;48.642;9.008;2023-03-14T21:22:38;8.00;60.20
29007;DHT22;16104;48.642;9.008;2023-03-14T21:27:37;8.00;60.30
29007;DHT22;16104;48.642;9.008;2023-03-14T21:32:33;7.90;60.50
29007;DHT22;16104;48.642;9.008;2023-03-14T21:37:28;7.90;60.80
29007;DHT22;16104;48.642;9.008;2023-03-14T21:42:24;7.80;61.20
29007;DHT22;16104;48.642;9.008;2023-03-14T21:47:20;7.80;61.40
29007;DHT22;16104;48.642;9.008;2023-03-14T21:52:17;7.70;61.40
29007;DHT22;16104;48.642;9.008;2023-03-14T21:57:15;7.70;61.60
29007;DHT22;16104;48.642;9.008;2023-03-14T22:02:14;7.60;61.90
29007;DHT22;16104;48.642;9.008;2023-03-14T22:07:13;7.60;62.10
29007;DHT22;16104;48.642;9.008;2023-03-14T22:12:10;7.50;62.10
29007;DHT22;16104;48.642;9.008;2023-03-14T22:17:11;7.50;62.30
29007;DHT22;16104;48.642;9.008;2023-03-14T22:22:07;7.50;62.30
29007;DHT22;16104;48.642;9.008;2023-03-14T22:27:02;7.40;62.20
29007;DHT22;16104;48.642;9.008;2023-03-14T22:31:58;7.40;62.50
29007;DHT22;16104;48.642;9.008;2023-03-14T22:36:53;7.30;62.40
29007;DHT22;16104;48.642;9.008;2023-03-14T22:41:49;7.30;62.80
29007;DHT22;16104;48.642;9.008;2023-03-14T22:46:44;7.30;61.30
29007;DHT22;16104;48.642;9.008;2023-03-14T22:51:40;7.10;60.60
29007;DHT22;16104;48.642;9.008;2023-03-14T22:56:35;6.90;60.00
29007;DHT22;16104;48.642;9.008;2023-03-14T23:01:31;6.70;60.00
29007;DHT22;16104;48.642;9.008;2023-03-14T23:06:27;6.40;60.20
29007;DHT22;16104;48.642;9.008;2023-03-14T23:11:24;6.10;61.20
29007;DHT22;16104;48.642;9.008;2023-03-14T23:16:20;5.90;60.60
29007;DHT22;16104;48.642;9.008;2023-03-14T23:21:18;5.70;61.10
29007;DHT22;16104;48.642;9.008;2023-03-14T23:26:17;5.50;61.20
29007;DHT22;16104;48.642;9.008;2023-03-14T23:31:12;5.40;61.70
29007;DHT22;16104;48.642;9.008;2023-03-14T23:36:12;5.20;61.90
29007;DHT22;16104;48.642;9.008;2023-03-14T23:41:09;5.10;62.40
29007;DHT22;16104;48.642;9.008;2023-03-14T23:46:08;5.00;62.80
29007;DHT22;16104;48.642;9.008;2023-03-14T23:51:06;5.00;63.20
29007;DHT22;16104;48.642;9.008;2023-03-14T23:56:02;4.90;63.40
